Anzahl Datensätze: 289
min. Temperatur: -2.9 °C
max. Temperatur: 13.2 °C
max. Windgeschwindigkeit: 35.3 km/h
Niederschlagsumme: 1.2 mm
| Datum |
Zeit |
Temp °C |
Feuchte % |
Taupunkt °C |
Luftdruck hPa |
Wind km/h |
Windrichtung |
Strahlung w/m² |
Niederschlag mm |
|---|---|---|---|---|---|---|---|---|---|
| 12.03.2023 | 00:04 | -1.8 | 85 | -4.0 | 1013.5 | 0.0 | NNW | 0 | 0.0 |
| 12.03.2023 | 00:08 | -1.8 | 85 | -4.0 | 1013.5 | 0.0 | NNW | 0 | 0.0 |
| 12.03.2023 | 00:14 | -1.8 | 85 | -4.0 | 1013.4 | 0.0 | NNW | 0 | 0.0 |
| 12.03.2023 | 00:18 | -1.9 | 85 | -4.1 | 1013.4 | 0.0 | NNW | 0 | 0.0 |
| 12.03.2023 | 00:24 | -1.9 | 85 | -4.1 | 1013.4 | 0.0 | NNW | 0 | 0.0 |
| 12.03.2023 | 00:28 | -1.9 | 86 | -3.9 | 1013.4 | 0.0 | NNW | 0 | 0.0 |
| 12.03.2023 | 00:34 | -2.0 | 86 | -4.0 | 1013.5 | 0.0 | NNW | 0 | 0.0 |
| 12.03.2023 | 00:38 | -2.2 | 86 | -4.2 | 1013.4 | 0.0 | NNW | 0 | 0.0 |
| 12.03.2023 | 00:44 | -2.2 | 87 | -4.1 | 1013.3 | 0.0 | NNW | 0 | 0.0 |
| 12.03.2023 | 00:48 | -2.3 | 86 | -4.3 | 1013.4 | 0.0 | NNW | 0 | 0.0 |
| 12.03.2023 | 00:54 | -2.4 | 87 | -4.3 | 1013.4 | 0.0 | NNW | 0 | 0.0 |
| 12.03.2023 | 00:58 | -2.4 | 87 | -4.3 | 1013.4 | 0.0 | NNW | 0 | 0.0 |
| 12.03.2023 | 01:04 | -2.4 | 87 | -4.3 | 1013.4 | 0.0 | NNW | 0 | 0.0 |
| 12.03.2023 | 01:08 | -2.5 | 87 | -4.4 | 1013.3 | 0.0 | NNW | 0 | 0.0 |
| 12.03.2023 | 01:14 | -2.4 | 88 | -4.1 | 1013.3 | 0.0 | NNW | 0 | 0.0 |
| 12.03.2023 | 01:18 | -2.4 | 87 | -4.3 | 1013.4 | 0.0 | NNW | 0 | 0.0 |
| 12.03.2023 | 01:24 | -2.6 | 88 | -4.3 | 1013.3 | 0.0 | NNW | 0 | 0.0 |
| 12.03.2023 | 01:28 | -2.6 | 87 | -4.5 | 1013.3 | 0.0 | NNW | 0 | 0.0 |
| 12.03.2023 | 01:34 | -2.4 | 87 | -4.3 | 1013.3 | 0.0 | NNW | 0 | 0.0 |
| 12.03.2023 | 01:38 | -2.5 | 87 | -4.4 | 1013.3 | 0.0 | NNW | 0 | 0.0 |
| 12.03.2023 | 01:44 | -2.6 | 87 | -4.5 | 1013.3 | 0.0 | NNW | 0 | 0.0 |
| 12.03.2023 | 01:48 | -2.6 | 88 | -4.3 | 1013.3 | 0.0 | NNW | 0 | 0.0 |
| 12.03.2023 | 01:54 | -2.7 | 87 | -4.6 | 1013.4 | 0.0 | NNW | 0 | 0.0 |
| 12.03.2023 | 01:58 | -2.8 | 88 | -4.5 | 1013.3 | 0.0 | NNW | 0 | 0.0 |
| 12.03.2023 | 02:04 | -2.9 | 88 | -4.6 | 1013.4 | 0.0 | NNW | 0 | 0.0 |
| 12.03.2023 | 02:08 | -2.9 | 88 | -4.6 | 1013.3 | 0.0 | NNW | 0 | 0.0 |
| 12.03.2023 | 02:14 | -2.9 | 89 | -4.5 | 1013.4 | 0.0 | NNW | 0 | 0.0 |
| 12.03.2023 | 02:18 | -2.9 | 89 | -4.5 | 1013.4 | 0.0 | NNW | 0 | 0.0 |
| 12.03.2023 | 02:24 | -2.9 | 89 | -4.5 | 1013.4 | 0.0 | NNW | 0 | 0.0 |
| 12.03.2023 | 02:28 | -2.9 | 89 | -4.5 | 1013.4 | 0.0 | NNW | 0 | 0.0 |
| 12.03.2023 | 02:34 | -2.8 | 89 | -4.4 | 1013.5 | 0.0 | NNW | 0 | 0.0 |
| 12.03.2023 | 02:38 | -2.8 | 89 | -4.4 | 1013.3 | 0.0 | NNW | 0 | 0.0 |
| 12.03.2023 | 02:44 | -2.7 | 89 | -4.3 | 1013.3 | 0.0 | NNW | 0 | 0.0 |
| 12.03.2023 | 02:48 | -2.6 | 89 | -4.2 | 1013.4 | 0.0 | NNW | 0 | 0.0 |
| 12.03.2023 | 02:54 | -2.6 | 89 | -4.2 | 1013.1 | 0.0 | NNW | 0 | 0.0 |
| 12.03.2023 | 02:58 | -2.6 | 89 | -4.2 | 1013.1 | 0.0 | NNW | 0 | 0.0 |
| 12.03.2023 | 03:04 | -2.6 | 89 | -4.2 | 1013.1 | 0.0 | NNW | 0 | 0.0 |
| 12.03.2023 | 03:08 | -2.6 | 89 | -4.2 | 1013.0 | 0.0 | NNW | 0 | 0.0 |
| 12.03.2023 | 03:14 | -2.6 | 89 | -4.2 | 1013.0 | 0.0 | NNW | 0 | 0.0 |
| 12.03.2023 | 03:18 | -2.4 | 89 | -4.0 | 1013.0 | 0.0 | NNW | 0 | 0.0 |
| 12.03.2023 | 03:24 | -2.3 | 90 | -3.7 | 1012.9 | 0.0 | NNW | 0 | 0.0 |
| 12.03.2023 | 03:28 | -2.3 | 90 | -3.7 | 1013.0 | 0.0 | NNW | 0 | 0.0 |
| 12.03.2023 | 03:34 | -2.2 | 90 | -3.6 | 1012.9 | 0.0 | NNW | 0 | 0.0 |
| 12.03.2023 | 03:38 | -2.2 | 90 | -3.6 | 1012.9 | 0.0 | NNW | 0 | 0.0 |
| 12.03.2023 | 03:44 | -2.1 | 90 | -3.5 | 1013.0 | 0.0 | NNW | 0 | 0.0 |
| 12.03.2023 | 03:48 | -2.1 | 89 | -3.7 | 1013.0 | 0.0 | NNW | 0 | 0.0 |
| 12.03.2023 | 03:54 | -2.1 | 89 | -3.7 | 1013.0 | 0.0 | NNW | 0 | 0.0 |
| 12.03.2023 | 03:58 | -2.1 | 89 | -3.7 | 1013.0 | 0.0 | NNW | 0 | 0.0 |
| 12.03.2023 | 04:04 | -2.0 | 90 | -3.4 | 1012.9 | 0.0 | NNW | 0 | 0.0 |
| 12.03.2023 | 04:08 | -1.9 | 90 | -3.3 | 1012.8 | 0.0 | NNW | 0 | 0.0 |
| 12.03.2023 | 04:14 | -1.9 | 90 | -3.3 | 1012.7 | 0.0 | NNW | 0 | 0.0 |
| 12.03.2023 | 04:18 | -1.8 | 90 | -3.2 | 1012.8 | 0.0 | NNW | 0 | 0.0 |
| 12.03.2023 | 04:24 | -1.8 | 90 | -3.2 | 1012.7 | 0.0 | NNW | 0 | 0.0 |
| 12.03.2023 | 04:28 | -1.8 | 90 | -3.2 | 1012.6 | 0.0 | NNW | 0 | 0.0 |
| 12.03.2023 | 04:34 | -1.8 | 90 | -3.2 | 1012.6 | 0.0 | NNW | 0 | 0.0 |
| 12.03.2023 | 04:38 | -1.8 | 90 | -3.2 | 1012.7 | 0.0 | NNW | 0 | 0.0 |
| 12.03.2023 | 04:44 | -1.7 | 90 | -3.1 | 1012.5 | 0.0 | NNW | 0 | 0.0 |
| 12.03.2023 | 04:48 | -1.7 | 90 | -3.1 | 1012.5 | 0.0 | NNW | 0 | 0.0 |
| 12.03.2023 | 04:54 | -1.7 | 90 | -3.1 | 1012.6 | 0.0 | NNW | 0 | 0.0 |
| 12.03.2023 | 04:58 | -1.6 | 90 | -3.0 | 1012.6 | 0.0 | NNW | 0 | 0.0 |
| 12.03.2023 | 05:04 | -1.5 | 90 | -2.9 | 1012.7 | 0.0 | NNW | 0 | 0.0 |
| 12.03.2023 | 05:08 | -1.4 | 90 | -2.8 | 1012.9 | 0.0 | NNW | 0 | 0.0 |
| 12.03.2023 | 05:14 | -1.4 | 90 | -2.8 | 1012.8 | 0.0 | NNW | 0 | 0.0 |
| 12.03.2023 | 05:18 | -1.4 | 90 | -2.8 | 1012.9 | 0.0 | NNW | 0 | 0.0 |
| 12.03.2023 | 05:24 | -1.3 | 90 | -2.7 | 1012.9 | 1.4 | NNW | 0 | 0.0 |
| 12.03.2023 | 05:28 | -1.3 | 90 | -2.7 | 1012.9 | 3.2 | NW | 0 | 0.0 |
| 12.03.2023 | 05:34 | -1.2 | 90 | -2.6 | 1013.0 | 3.2 | NW | 0 | 0.0 |
| 12.03.2023 | 05:38 | -1.2 | 90 | -2.6 | 1013.0 | 1.4 | NW | 0 | 0.0 |
| 12.03.2023 | 05:44 | -1.2 | 90 | -2.6 | 1012.9 | 0.0 | NW | 0 | 0.0 |
| 12.03.2023 | 05:48 | -1.1 | 90 | -2.5 | 1012.9 | 0.0 | NNW | 0 | 0.0 |
| 12.03.2023 | 05:54 | -1.1 | 90 | -2.5 | 1012.9 | 0.0 | NNW | 0 | 0.0 |
| 12.03.2023 | 05:58 | -1.1 | 90 | -2.5 | 1012.8 | 0.0 | NNW | 0 | 0.0 |
| 12.03.2023 | 06:04 | -1.0 | 90 | -2.4 | 1012.7 | 0.0 | N | 0 | 0.0 |
| 12.03.2023 | 06:08 | -1.0 | 90 | -2.4 | 1012.7 | 0.0 | NNO | 0 | 0.0 |
| 12.03.2023 | 06:14 | -0.9 | 90 | -2.3 | 1012.6 | 0.0 | NO | 0 | 0.0 |
| 12.03.2023 | 06:18 | -0.9 | 90 | -2.3 | 1012.6 | 0.0 | NO | 0 | 0.0 |
| 12.03.2023 | 06:24 | -0.8 | 90 | -2.2 | 1012.5 | 0.0 | NO | 0 | 0.0 |
| 12.03.2023 | 06:28 | -0.8 | 90 | -2.2 | 1012.5 | 0.0 | NO | 0 | 0.0 |
| 12.03.2023 | 06:34 | -0.8 | 90 | -2.2 | 1012.3 | 0.0 | NO | 0 | 0.0 |
| 12.03.2023 | 06:38 | -0.8 | 90 | -2.2 | 1012.4 | 0.0 | NO | 0 | 0.0 |
| 12.03.2023 | 06:44 | -0.8 | 90 | -2.2 | 1012.4 | 0.0 | ONO | 0 | 0.0 |
| 12.03.2023 | 06:48 | -0.7 | 90 | -2.1 | 1012.3 | 0.0 | O | 0 | 0.0 |
| 12.03.2023 | 06:54 | -0.7 | 90 | -2.1 | 1012.3 | 1.4 | OSO | 0 | 0.0 |
| 12.03.2023 | 06:58 | -0.7 | 91 | -2.0 | 1012.4 | 1.4 | OSO | 5 | 0.0 |
| 12.03.2023 | 07:04 | -0.7 | 91 | -2.0 | 1012.4 | 0.0 | SO | 5 | 0.0 |
| 12.03.2023 | 07:08 | -0.6 | 91 | -1.9 | 1012.4 | 0.0 | SO | 5 | 0.0 |
| 12.03.2023 | 07:14 | -0.6 | 91 | -1.9 | 1012.5 | 0.0 | SSW | 5 | 0.0 |
| 12.03.2023 | 07:18 | -0.6 | 91 | -1.9 | 1012.6 | 0.0 | SW | 9 | 0.0 |
| 12.03.2023 | 07:24 | -0.5 | 91 | -1.8 | 1012.7 | 0.0 | SW | 11 | 0.0 |
| 12.03.2023 | 07:28 | -0.5 | 91 | -1.8 | 1012.7 | 0.0 | WSW | 11 | 0.0 |
| 12.03.2023 | 07:34 | -0.4 | 91 | -1.7 | 1012.6 | 0.0 | W | 18 | 0.0 |
| 12.03.2023 | 07:38 | -0.4 | 91 | -1.7 | 1012.5 | 0.0 | W | 30 | 0.0 |
| 12.03.2023 | 07:44 | -0.2 | 92 | -1.3 | 1012.5 | 0.0 | W | 54 | 0.0 |
| 12.03.2023 | 07:48 | -0.2 | 92 | -1.3 | 1012.5 | 0.0 | W | 33 | 0.0 |
| 12.03.2023 | 07:54 | -0.2 | 92 | -1.3 | 1012.5 | 0.0 | W | 33 | 0.0 |
| 12.03.2023 | 07:58 | -0.1 | 92 | -1.2 | 1012.6 | 0.0 | W | 28 | 0.0 |
| 12.03.2023 | 08:04 | -0.1 | 92 | -1.2 | 1012.6 | 0.0 | W | 23 | 0.0 |
| 12.03.2023 | 08:08 | -0.1 | 93 | -1.1 | 1012.7 | 0.0 | W | 21 | 0.0 |
| 12.03.2023 | 08:14 | 0.1 | 93 | -0.9 | 1012.8 | 0.0 | W | 25 | 0.0 |
| 12.03.2023 | 08:18 | 0.2 | 93 | -0.8 | 1012.7 | 0.0 | WNW | 39 | 0.0 |
| 12.03.2023 | 08:24 | 0.2 | 93 | -0.8 | 1012.7 | 0.0 | WNW | 46 | 0.0 |
| 12.03.2023 | 08:28 | 0.2 | 93 | -0.8 | 1012.7 | 0.0 | WNW | 42 | 0.2 |
| 12.03.2023 | 08:34 | 0.3 | 93 | -0.7 | 1012.7 | 0.0 | WNW | 58 | 0.2 |
| 12.03.2023 | 08:38 | 0.4 | 94 | -0.5 | 1012.6 | 0.0 | WNW | 76 | 0.4 |
| 12.03.2023 | 08:44 | 0.5 | 94 | -0.4 | 1012.6 | 0.0 | S | 86 | 0.4 |
| 12.03.2023 | 08:48 | 0.6 | 94 | -0.3 | 1012.7 | 0.0 | S | 65 | 0.4 |
| 12.03.2023 | 08:54 | 0.6 | 94 | -0.3 | 1012.8 | 0.0 | S | 44 | 0.6 |
| 12.03.2023 | 08:58 | 0.6 | 94 | -0.3 | 1012.7 | 0.0 | S | 49 | 0.6 |
| 12.03.2023 | 09:04 | 0.7 | 94 | -0.2 | 1012.9 | 0.0 | S | 46 | 0.6 |
| 12.03.2023 | 09:08 | 0.7 | 94 | -0.2 | 1013.0 | 0.0 | S | 44 | 0.8 |
| 12.03.2023 | 09:14 | 0.8 | 94 | -0.1 | 1013.0 | 0.0 | S | 28 | 0.8 |
| 12.03.2023 | 09:18 | 0.8 | 94 | -0.1 | 1013.0 | 0.0 | S | 54 | 0.8 |
| 12.03.2023 | 09:24 | 0.8 | 94 | -0.1 | 1013.1 | 0.0 | S | 58 | 0.8 |
| 12.03.2023 | 09:28 | 0.8 | 94 | -0.1 | 1013.0 | 0.0 | SSO | 54 | 0.8 |
| 12.03.2023 | 09:34 | 0.9 | 94 | 0.0 | 1013.0 | 0.0 | SSO | 69 | 0.8 |
| 12.03.2023 | 09:38 | 0.9 | 94 | 0.0 | 1013.0 | 0.0 | S | 79 | 0.8 |
| 12.03.2023 | 09:44 | 0.9 | 94 | 0.0 | 1013.1 | 1.4 | SSW | 84 | 0.8 |
| 12.03.2023 | 09:48 | 1.0 | 95 | 0.3 | 1013.1 | 1.4 | SSW | 86 | 0.8 |
| 12.03.2023 | 09:54 | 1.1 | 95 | 0.4 | 1013.1 | 3.2 | SW | 93 | 0.8 |
| 12.03.2023 | 09:58 | 1.2 | 95 | 0.5 | 1013.1 | 3.2 | SSW | 109 | 1.0 |
| 12.03.2023 | 10:04 | 1.3 | 95 | 0.6 | 1013.1 | 1.4 | WSW | 95 | 1.0 |
| 12.03.2023 | 10:08 | 1.4 | 95 | 0.7 | 1013.1 | 1.4 | SW | 95 | 1.0 |
| 12.03.2023 | 10:14 | 1.4 | 95 | 0.7 | 1013.1 | 1.4 | S | 102 | 1.0 |
| 12.03.2023 | 10:18 | 1.6 | 95 | 0.9 | 1013.1 | 3.2 | SSW | 105 | 1.2 |
| 12.03.2023 | 10:24 | 1.9 | 96 | 1.3 | 1013.2 | 3.2 | S | 118 | 1.2 |
| 12.03.2023 | 10:28 | 1.9 | 95 | 1.2 | 1013.2 | 4.7 | SW | 114 | 1.2 |
| 12.03.2023 | 10:34 | 2.2 | 96 | 1.6 | 1013.2 | 4.7 | WSW | 190 | 1.2 |
| 12.03.2023 | 10:38 | 2.4 | 96 | 1.8 | 1013.3 | 4.7 | SW | 169 | 1.2 |
| 12.03.2023 | 10:44 | 2.6 | 96 | 2.0 | 1013.1 | 6.5 | WSW | 230 | 1.2 |
| 12.03.2023 | 10:48 | 2.8 | 96 | 2.2 | 1013.2 | 6.5 | SSW | 185 | 1.2 |
| 12.03.2023 | 10:54 | 3.1 | 96 | 2.5 | 1013.3 | 7.9 | SW | 206 | 1.2 |
| 12.03.2023 | 10:58 | 3.3 | 96 | 2.7 | 1013.3 | 6.5 | SW | 225 | 1.2 |
| 12.03.2023 | 11:04 | 3.7 | 96 | 3.1 | 1013.4 | 7.9 | W | 132 | 1.2 |
| 12.03.2023 | 11:08 | 3.8 | 96 | 3.2 | 1013.4 | 7.9 | S | 130 | 1.2 |
| 12.03.2023 | 11:14 | 4.1 | 96 | 3.5 | 1013.5 | 7.9 | SW | 200 | 1.2 |
| 12.03.2023 | 11:18 | 4.4 | 96 | 3.8 | 1013.3 | 6.5 | SW | 441 | 1.2 |
| 12.03.2023 | 11:24 | 4.9 | 96 | 4.3 | 1013.4 | 6.5 | WSW | 350 | 1.2 |
| 12.03.2023 | 11:28 | 5.2 | 96 | 4.6 | 1013.3 | 7.9 | SSW | 320 | 1.2 |
| 12.03.2023 | 11:34 | 5.8 | 96 | 5.2 | 1013.3 | 9.7 | NW | 225 | 1.2 |
| 12.03.2023 | 11:38 | 5.8 | 95 | 5.1 | 1013.3 | 9.7 | WSW | 285 | 1.2 |
| 12.03.2023 | 11:44 | 6.1 | 95 | 5.4 | 1013.3 | 9.7 | SW | 387 | 1.2 |
| 12.03.2023 | 11:48 | 6.5 | 94 | 5.6 | 1013.2 | 11.2 | SW | 504 | 1.2 |
| 12.03.2023 | 11:54 | 6.8 | 94 | 5.9 | 1013.2 | 11.2 | WSW | 394 | 1.2 |
| 12.03.2023 | 11:58 | 6.8 | 93 | 5.7 | 1013.2 | 11.2 | SSW | 338 | 1.2 |
| 12.03.2023 | 12:04 | 7.1 | 93 | 6.0 | 1013.1 | 11.2 | WSW | 306 | 1.2 |
| 12.03.2023 | 12:08 | 7.4 | 93 | 6.3 | 1013.0 | 13.0 | WSW | 306 | 1.2 |
| 12.03.2023 | 12:14 | 7.8 | 93 | 6.7 | 1013.1 | 9.7 | WSW | 675 | 1.2 |
| 12.03.2023 | 12:18 | 8.3 | 92 | 7.1 | 1013.2 | 9.7 | WSW | 640 | 1.2 |
| 12.03.2023 | 12:24 | 8.7 | 91 | 7.3 | 1013.2 | 11.2 | SW | 628 | 1.2 |
| 12.03.2023 | 12:28 | 9.0 | 90 | 7.4 | 1013.2 | 11.2 | SW | 559 | 1.2 |
| 12.03.2023 | 12:30 | 9.2 | 90 | 7.6 | 1013.1 | 13.0 | S | 629 | 1.2 |
| 12.03.2023 | 12:34 | 9.5 | 89 | 7.8 | 1013.2 | 13.0 | W | 504 | 1.2 |
| 12.03.2023 | 12:38 | 9.8 | 88 | 7.9 | 1013.2 | 11.2 | SSW | 366 | 1.2 |
| 12.03.2023 | 12:44 | 9.7 | 88 | 7.8 | 1013.1 | 13.0 | SW | 323 | 1.2 |
| 12.03.2023 | 12:48 | 9.7 | 89 | 8.0 | 1013.2 | 13.0 | SW | 279 | 1.2 |
| 12.03.2023 | 12:54 | 9.7 | 90 | 8.1 | 1013.1 | 11.2 | W | 408 | 1.2 |
| 12.03.2023 | 12:58 | 9.6 | 90 | 8.0 | 1013.1 | 11.2 | S | 262 | 1.2 |
| 12.03.2023 | 13:04 | 9.9 | 90 | 8.3 | 1013.1 | 11.2 | SSW | 257 | 1.2 |
| 12.03.2023 | 13:08 | 10.1 | 89 | 8.4 | 1013.0 | 9.7 | WSW | 338 | 1.2 |
| 12.03.2023 | 13:14 | 10.2 | 89 | 8.5 | 1012.9 | 11.2 | WSW | 473 | 1.2 |
| 12.03.2023 | 13:18 | 10.7 | 89 | 9.0 | 1012.8 | 11.2 | WSW | 459 | 1.2 |
| 12.03.2023 | 13:24 | 10.8 | 88 | 8.9 | 1012.9 | 9.7 | SSW | 336 | 1.2 |
| 12.03.2023 | 13:28 | 11.0 | 87 | 8.9 | 1012.9 | 9.7 | SW | 260 | 1.2 |
| 12.03.2023 | 13:34 | 11.1 | 88 | 9.2 | 1012.9 | 11.2 | NNW | 448 | 1.2 |
| 12.03.2023 | 13:38 | 11.8 | 86 | 9.5 | 1012.7 | 11.2 | W | 584 | 1.2 |
| 12.03.2023 | 13:44 | 12.3 | 84 | 9.7 | 1012.6 | 9.7 | WSW | 624 | 1.2 |
| 12.03.2023 | 13:48 | 12.6 | 82 | 9.6 | 1012.7 | 9.7 | W | 654 | 1.2 |
| 12.03.2023 | 13:54 | 12.5 | 80 | 9.1 | 1012.8 | 11.2 | WNW | 197 | 1.2 |
| 12.03.2023 | 13:58 | 12.0 | 80 | 8.7 | 1012.8 | 13.0 | WNW | 195 | 1.2 |
| 12.03.2023 | 14:04 | 11.6 | 81 | 8.5 | 1012.8 | 13.0 | WSW | 206 | 1.2 |
| 12.03.2023 | 14:08 | 11.8 | 82 | 8.8 | 1012.7 | 13.0 | WNW | 814 | 1.2 |
| 12.03.2023 | 14:14 | 12.6 | 78 | 8.9 | 1012.5 | 11.2 | WSW | 281 | 1.2 |
| 12.03.2023 | 14:18 | 12.6 | 79 | 9.1 | 1012.4 | 11.2 | W | 265 | 1.2 |
| 12.03.2023 | 14:24 | 12.3 | 79 | 8.8 | 1012.4 | 11.2 | SW | 278 | 1.2 |
| 12.03.2023 | 14:28 | 12.3 | 78 | 8.6 | 1012.4 | 13.0 | WSW | 301 | 1.2 |
| 12.03.2023 | 14:34 | 12.4 | 78 | 8.7 | 1012.3 | 11.2 | WSW | 330 | 1.2 |
| 12.03.2023 | 14:38 | 12.4 | 77 | 8.5 | 1012.2 | 11.2 | WSW | 292 | 1.2 |
| 12.03.2023 | 14:44 | 12.6 | 77 | 8.7 | 1012.2 | 11.2 | W | 311 | 1.2 |
| 12.03.2023 | 14:48 | 13.0 | 76 | 8.9 | 1012.2 | 7.9 | W | 297 | 1.2 |
| 12.03.2023 | 14:54 | 13.2 | 76 | 9.1 | 1012.2 | 13.0 | WSW | 555 | 1.2 |
| 12.03.2023 | 14:58 | 13.0 | 75 | 8.7 | 1012.2 | 14.4 | WSW | 213 | 1.2 |
| 12.03.2023 | 15:04 | 12.9 | 76 | 8.8 | 1012.2 | 11.2 | SW | 257 | 1.2 |
| 12.03.2023 | 15:08 | 12.8 | 76 | 8.7 | 1012.3 | 13.0 | SW | 211 | 1.2 |
| 12.03.2023 | 15:14 | 12.7 | 76 | 8.6 | 1012.4 | 14.4 | SSW | 162 | 1.2 |
| 12.03.2023 | 15:18 | 12.7 | 77 | 8.8 | 1012.3 | 13.0 | SSW | 149 | 1.2 |
| 12.03.2023 | 15:24 | 12.5 | 77 | 8.6 | 1012.4 | 13.0 | WSW | 74 | 1.2 |
| 12.03.2023 | 15:28 | 12.3 | 77 | 8.4 | 1012.3 | 11.2 | SW | 95 | 1.2 |
| 12.03.2023 | 15:34 | 12.4 | 76 | 8.3 | 1012.3 | 11.2 | SSW | 223 | 1.2 |
| 12.03.2023 | 15:38 | 12.6 | 75 | 8.3 | 1012.3 | 11.2 | WNW | 171 | 1.2 |
| 12.03.2023 | 15:44 | 12.6 | 75 | 8.3 | 1012.2 | 11.2 | SSW | 135 | 1.2 |
| 12.03.2023 | 15:48 | 12.6 | 75 | 8.3 | 1012.3 | 13.0 | SW | 171 | 1.2 |
| 12.03.2023 | 15:54 | 12.6 | 74 | 8.1 | 1012.3 | 11.2 | SW | 155 | 1.2 |
| 12.03.2023 | 15:58 | 12.6 | 74 | 8.1 | 1012.3 | 11.2 | SW | 144 | 1.2 |
| 12.03.2023 | 16:04 | 12.7 | 74 | 8.2 | 1012.2 | 11.2 | SW | 134 | 1.2 |
| 12.03.2023 | 16:08 | 12.7 | 73 | 8.0 | 1012.2 | 9.7 | WSW | 135 | 1.2 |
| 12.03.2023 | 16:14 | 12.7 | 73 | 8.0 | 1012.2 | 9.7 | SSW | 118 | 1.2 |
| 12.03.2023 | 16:18 | 12.6 | 73 | 7.9 | 1012.1 | 9.7 | SW | 111 | 1.2 |
| 12.03.2023 | 16:24 | 12.6 | 73 | 7.9 | 1012.1 | 9.7 | SW | 65 | 1.2 |
| 12.03.2023 | 16:28 | 12.6 | 73 | 7.9 | 1012.2 | 9.7 | WSW | 53 | 1.2 |
| 12.03.2023 | 16:34 | 12.4 | 74 | 7.9 | 1012.1 | 9.7 | WSW | 83 | 1.2 |
| 12.03.2023 | 16:38 | 12.4 | 74 | 7.9 | 1012.1 | 9.7 | WSW | 123 | 1.2 |
| 12.03.2023 | 16:44 | 12.6 | 72 | 7.7 | 1012.1 | 9.7 | NW | 114 | 1.2 |
| 12.03.2023 | 16:48 | 12.6 | 72 | 7.7 | 1012.0 | 11.2 | SW | 98 | 1.2 |
| 12.03.2023 | 16:54 | 12.6 | 71 | 7.5 | 1012.0 | 13.0 | W | 69 | 1.2 |
| 12.03.2023 | 16:58 | 12.6 | 71 | 7.5 | 1012.0 | 13.0 | SW | 47 | 1.2 |
| 12.03.2023 | 17:04 | 12.4 | 72 | 7.5 | 1012.2 | 11.2 | SSW | 69 | 1.2 |
| 12.03.2023 | 17:08 | 12.4 | 72 | 7.5 | 1012.1 | 9.7 | WSW | 90 | 1.2 |
| 12.03.2023 | 17:14 | 12.4 | 72 | 7.5 | 1012.0 | 9.7 | SW | 102 | 1.2 |
| 12.03.2023 | 17:18 | 12.4 | 72 | 7.5 | 1011.9 | 11.2 | SSW | 90 | 1.2 |
| 12.03.2023 | 17:24 | 12.4 | 72 | 7.5 | 1011.9 | 11.2 | SW | 72 | 1.2 |
| 12.03.2023 | 17:28 | 12.4 | 72 | 7.5 | 1011.9 | 11.2 | W | 62 | 1.2 |
| 12.03.2023 | 17:34 | 12.3 | 71 | 7.2 | 1011.8 | 11.2 | SW | 46 | 1.2 |
| 12.03.2023 | 17:38 | 12.3 | 71 | 7.2 | 1011.8 | 11.2 | SSW | 35 | 1.2 |
| 12.03.2023 | 17:44 | 12.3 | 71 | 7.2 | 1011.8 | 9.7 | SW | 39 | 1.2 |
| 12.03.2023 | 17:48 | 12.3 | 71 | 7.2 | 1011.8 | 9.7 | WSW | 35 | 1.2 |
| 12.03.2023 | 17:54 | 12.1 | 72 | 7.2 | 1011.9 | 9.7 | WSW | 28 | 1.2 |
| 12.03.2023 | 17:58 | 12.0 | 72 | 7.1 | 1012.0 | 7.9 | WSW | 23 | 1.2 |
| 12.03.2023 | 18:04 | 11.8 | 73 | 7.1 | 1012.1 | 6.5 | S | 18 | 1.2 |
| 12.03.2023 | 18:08 | 11.8 | 73 | 7.1 | 1012.1 | 7.9 | W | 14 | 1.2 |
| 12.03.2023 | 18:14 | 11.6 | 74 | 7.1 | 1012.1 | 7.9 | WSW | 9 | 1.2 |
| 12.03.2023 | 18:18 | 11.6 | 74 | 7.1 | 1012.1 | 6.5 | WSW | 7 | 1.2 |
| 12.03.2023 | 18:24 | 11.5 | 74 | 7.0 | 1012.1 | 6.5 | WSW | 0 | 1.2 |
| 12.03.2023 | 18:28 | 11.5 | 74 | 7.0 | 1012.1 | 7.9 | WSW | 0 | 1.2 |
| 12.03.2023 | 18:34 | 11.5 | 74 | 7.0 | 1012.2 | 9.7 | WSW | 0 | 1.2 |
| 12.03.2023 | 18:38 | 11.4 | 74 | 6.9 | 1012.1 | 9.7 | WSW | 0 | 1.2 |
| 12.03.2023 | 18:44 | 11.4 | 74 | 6.9 | 1012.1 | 7.9 | SW | 0 | 1.2 |
| 12.03.2023 | 18:48 | 11.4 | 74 | 6.9 | 1012.1 | 9.7 | SW | 0 | 1.2 |
| 12.03.2023 | 18:54 | 11.3 | 75 | 7.0 | 1012.2 | 9.7 | WSW | 0 | 1.2 |
| 12.03.2023 | 18:58 | 11.3 | 75 | 7.0 | 1012.3 | 9.7 | WSW | 0 | 1.2 |
| 12.03.2023 | 19:04 | 11.2 | 75 | 6.9 | 1012.3 | 9.7 | SW | 0 | 1.2 |
| 12.03.2023 | 19:08 | 11.2 | 75 | 6.9 | 1012.4 | 9.7 | SW | 0 | 1.2 |
| 12.03.2023 | 19:14 | 11.2 | 75 | 6.9 | 1012.5 | 7.9 | SSW | 0 | 1.2 |
| 12.03.2023 | 19:18 | 11.1 | 75 | 6.8 | 1012.5 | 7.9 | SW | 0 | 1.2 |
| 12.03.2023 | 19:24 | 11.0 | 75 | 6.7 | 1012.5 | 9.7 | WSW | 0 | 1.2 |
| 12.03.2023 | 19:28 | 11.0 | 76 | 6.9 | 1012.4 | 9.7 | WSW | 0 | 1.2 |
| 12.03.2023 | 19:34 | 10.9 | 76 | 6.8 | 1012.3 | 9.7 | WSW | 0 | 1.2 |
| 12.03.2023 | 19:38 | 10.8 | 76 | 6.7 | 1012.3 | 9.7 | SW | 0 | 1.2 |
| 12.03.2023 | 19:44 | 10.8 | 76 | 6.7 | 1012.4 | 9.7 | WSW | 0 | 1.2 |
| 12.03.2023 | 19:48 | 10.8 | 76 | 6.7 | 1012.4 | 7.9 | WSW | 0 | 1.2 |
| 12.03.2023 | 19:54 | 10.8 | 76 | 6.7 | 1012.4 | 7.9 | WSW | 0 | 1.2 |
| 12.03.2023 | 19:58 | 10.7 | 76 | 6.6 | 1012.4 | 7.9 | WSW | 0 | 1.2 |
| 12.03.2023 | 20:04 | 10.6 | 77 | 6.7 | 1012.5 | 7.9 | W | 0 | 1.2 |
| 12.03.2023 | 20:08 | 10.7 | 77 | 6.8 | 1012.5 | 7.9 | W | 0 | 1.2 |
| 12.03.2023 | 20:14 | 10.6 | 77 | 6.7 | 1012.5 | 7.9 | WNW | 0 | 1.2 |
| 12.03.2023 | 20:18 | 10.6 | 77 | 6.7 | 1012.6 | 6.5 | WSW | 0 | 1.2 |
| 12.03.2023 | 20:24 | 10.4 | 77 | 6.5 | 1012.6 | 6.5 | SW | 0 | 1.2 |
| 12.03.2023 | 20:28 | 10.4 | 77 | 6.5 | 1012.6 | 7.9 | SW | 0 | 1.2 |
| 12.03.2023 | 20:34 | 10.4 | 77 | 6.5 | 1012.6 | 7.9 | SW | 0 | 1.2 |
| 12.03.2023 | 20:38 | 10.3 | 78 | 6.6 | 1012.6 | 7.9 | SW | 0 | 1.2 |
| 12.03.2023 | 20:44 | 10.3 | 78 | 6.6 | 1012.6 | 7.9 | SW | 0 | 1.2 |
| 12.03.2023 | 20:48 | 10.3 | 78 | 6.6 | 1012.6 | 7.9 | W | 0 | 1.2 |
| 12.03.2023 | 20:54 | 10.3 | 78 | 6.6 | 1012.5 | 7.9 | WSW | 0 | 1.2 |
| 12.03.2023 | 20:58 | 10.5 | 77 | 6.6 | 1012.4 | 7.9 | WSW | 0 | 1.2 |
| 12.03.2023 | 21:04 | 10.5 | 77 | 6.6 | 1012.4 | 7.9 | SW | 0 | 1.2 |
| 12.03.2023 | 21:08 | 10.6 | 77 | 6.7 | 1012.4 | 9.7 | SW | 0 | 1.2 |
| 12.03.2023 | 21:14 | 10.7 | 77 | 6.8 | 1012.4 | 11.2 | SW | 0 | 1.2 |
| 12.03.2023 | 21:18 | 10.7 | 76 | 6.6 | 1012.4 | 11.2 | SSW | 0 | 1.2 |
| 12.03.2023 | 21:24 | 10.7 | 76 | 6.6 | 1012.4 | 9.7 | SW | 0 | 1.2 |
| 12.03.2023 | 21:28 | 10.7 | 76 | 6.6 | 1012.4 | 9.7 | WSW | 0 | 1.2 |
| 12.03.2023 | 21:34 | 10.8 | 76 | 6.7 | 1012.4 | 9.7 | WSW | 0 | 1.2 |
| 12.03.2023 | 21:38 | 10.7 | 76 | 6.6 | 1012.3 | 7.9 | SW | 0 | 1.2 |
| 12.03.2023 | 21:44 | 10.6 | 76 | 6.5 | 1012.3 | 6.5 | SSW | 0 | 1.2 |
| 12.03.2023 | 21:48 | 10.6 | 77 | 6.7 | 1012.3 | 6.5 | SSW | 0 | 1.2 |
| 12.03.2023 | 21:54 | 10.6 | 76 | 6.5 | 1012.3 | 7.9 | SSW | 0 | 1.2 |
| 12.03.2023 | 21:58 | 10.6 | 77 | 6.7 | 1012.2 | 7.9 | SSW | 0 | 1.2 |
| 12.03.2023 | 22:04 | 10.4 | 77 | 6.5 | 1012.2 | 7.9 | SW | 0 | 1.2 |
| 12.03.2023 | 22:08 | 10.5 | 77 | 6.6 | 1012.2 | 6.5 | SW | 0 | 1.2 |
| 12.03.2023 | 22:14 | 10.4 | 77 | 6.5 | 1012.1 | 6.5 | SW | 0 | 1.2 |
| 12.03.2023 | 22:18 | 10.5 | 77 | 6.6 | 1012.1 | 6.5 | SSW | 0 | 1.2 |
| 12.03.2023 | 22:24 | 10.6 | 76 | 6.5 | 1012.1 | 6.5 | SW | 0 | 1.2 |
| 12.03.2023 | 22:28 | 10.6 | 76 | 6.5 | 1012.1 | 7.9 | SW | 0 | 1.2 |
| 12.03.2023 | 22:34 | 10.7 | 76 | 6.6 | 1012.0 | 7.9 | SW | 0 | 1.2 |
| 12.03.2023 | 22:38 | 10.7 | 76 | 6.6 | 1012.0 | 7.9 | SSW | 0 | 1.2 |
| 12.03.2023 | 22:44 | 10.8 | 75 | 6.5 | 1011.9 | 6.5 | SW | 0 | 1.2 |
| 12.03.2023 | 22:48 | 10.8 | 75 | 6.5 | 1011.9 | 7.9 | SSW | 0 | 1.2 |
| 12.03.2023 | 22:54 | 10.8 | 75 | 6.5 | 1011.9 | 7.9 | SSW | 0 | 1.2 |
| 12.03.2023 | 22:58 | 10.7 | 75 | 6.4 | 1011.8 | 6.5 | WSW | 0 | 1.2 |
| 12.03.2023 | 23:04 | 10.7 | 75 | 6.4 | 1011.6 | 6.5 | SW | 0 | 1.2 |
| 12.03.2023 | 23:08 | 10.7 | 75 | 6.4 | 1011.5 | 7.9 | SW | 0 | 1.2 |
| 12.03.2023 | 23:14 | 10.7 | 75 | 6.4 | 1011.4 | 9.7 | WSW | 0 | 1.2 |
| 12.03.2023 | 23:18 | 10.7 | 75 | 6.4 | 1011.4 | 9.7 | SW | 0 | 1.2 |
| 12.03.2023 | 23:24 | 10.8 | 74 | 6.4 | 1011.3 | 7.9 | S | 0 | 1.2 |
| 12.03.2023 | 23:28 | 10.7 | 74 | 6.3 | 1011.4 | 6.5 | S | 0 | 1.2 |
| 12.03.2023 | 23:34 | 10.6 | 75 | 6.4 | 1011.4 | 4.7 | SSW | 0 | 1.2 |
| 12.03.2023 | 23:38 | 10.6 | 75 | 6.4 | 1011.5 | 4.7 | S | 0 | 1.2 |
| 12.03.2023 | 23:44 | 10.6 | 75 | 6.4 | 1011.4 | 7.9 | S | 0 | 1.2 |
| 12.03.2023 | 23:48 | 10.7 | 75 | 6.4 | 1011.4 | 7.9 | SSW | 0 | 1.2 |
| 12.03.2023 | 23:54 | 10.7 | 75 | 6.4 | 1011.3 | 6.5 | SSW | 0 | 1.2 |
| 12.03.2023 | 23:58 | 10.7 | 75 | 6.4 | 1011.3 | 7.9 | SSW | 0 | 1.2 |